Frank Wiley Field
KMLS : rendu visible

Aérodrome :











RETROUVEZ-NOUS SUR...

 
LOGIN :

S'inscrire | Disclaimer

   EN    FR    IT 

 









Légende :    VFR   VFR Marginal   IFR   IFR Intensif   IFR Très Intensif
Visi : 
Plafond : 
>= 8 km
>= 3000ft
5 à 8 km
1000 à 3000 ft
1500m à 5 km
500 à 1000 ft
800 à 1500m
200 à 500 ft
< 800m
< 200 ft
Symboles :   Orages  Brouillard  Fortes neiges  Fortes précipitations  Vent > 20 kt






- Altitude de l'aérodrome : 2630 ft
- Code IATA : MLS


KMLS - Frank Wiley Field

DERNIER METAR :
  • 271553Z AUTO 22005KT 10SM OVC004 00/M01 A3018 RMK AO2 SLP244 T00001006

METARs EXPIRÉS :
  • 271503Z AUTO 26008KT 3SM BR OVC002 M01/M01 A3018 RMK AO2 T10111011
  • 271453Z AUTO 26009KT 1 1/4SM BR BKN002 BKN009 M02/M02 A3018 RMK AO2 SLP245 T10171017 51009
  • 271353Z AUTO 27005KT 10SM FEW038 M04/M04 A3018 RMK AO2 SLP247 T10391044
  • 271326Z AUTO 28005KT 10SM SCT010 BKN041 M02/M02 A3017 RMK AO2 T10171022

TAF KMLS
Valide du 27 à 15h jusqu'au 28 à 12h UTC


271512Z 2715/2812 27010KT P6SM SCT002 BKN070
TEMPO 2715/2717 3SM BR BKN002
FM272000 28017G25KT P6SM SCT100
FM280200 30011KT P6SM SCT050 BKN120
FM280700 29010KT P6SM SCT200



MET'MAP, la Météo Aéronautique d'un coup d'oeil ! - Copyright ORBIFLY Décembre 2007 - Disclaimer

ORBIFLY MET'MAP TEAM :

Programmation & Développement : Alexandra Zaïnal
Sur une idée originale de : Baudouin d'Aumeries
Assistance à la programmation : Marc-Olivier Méhu
Soutien technique & logistique : Manuel Goepfert

Contact : metmap@orbifly.com




SOURCES & CREDITS :

   NOAA       Earth
Advisory